Pagrindinis puslapis
METAR-TAF:

METAR-TAF

Oro uostai :

Kororas, Babeltuapas, Palau

platuma: 07-22N, ilguma: 134-32E, Aukštis: 54 m

Dabartinis oras

Ataskaita buvo paskelbta 21 minutes, ne 01:50 UTC
Vėjas 9 kt iš Pietų/Pietryčių
Temperatūra 30°C
Drėgmė 70%
Slėgis 1012 hPa
Matomumas: 24.1 km
Išsisklaidę debesys ne aukštis 1600 ft
Su prošvaistėmis ne aukštis 12000 ft
Su prošvaistėmis ne aukštis 30000 ft

METAR: PTRO 170150Z 16009KT 15SM SCT016 BKN120 BKN300 30/24 A2988

Laikas: 11:11 (02:11 UTC)

Prognozė

Ataskaita buvo paskelbta 2 valandos ir 51 minutes, ne 23:20 UTC
Prognozė galioja nuo 17 metu 00 UTC su 17 metu 24 UTC
Vėjas 9 kt iš Pietų/Pietvakarių
Matomumas: 10 km
Mažai debesys ne aukštis 1800 ft
Su prošvaistėmis ne aukštis 16000 ft
Nuo 17 metu 0200 UTC
Vėjas 11 kt iš Pietų
Matomumas: 10 km
Išsisklaidę debesys ne aukštis 1800 ft
Išsisklaidę debesys ne aukštis 16000 ft
Liūtis kaimynystėje

TAF: PTRO 162320Z 1700/1724 20009KT P6SM FEW018 BKN160 FM170200 19011KT P6SM VCSH SCT018 SCT160

Orai ataskaitas ir orų prognozės (METAR, TAF).

turimą stotys yra geltonos ir raudonos taškus žemėlapyje.

Perkelti pele per norėdami pamatyti stoties vardą.

Tada spustelėkite, norėdami matyti oro stebėjimo ir prognozės.

Norėdami pakeisti žemėlapį: spustelėkite ant žalios mygtukų su juodo kryžiaus žemyn,; žalią mygtuką su brūkšneliu, jei norite nutolinti; arba žalių rodyklių gretimoms žemėlapius.


METAR-TAF: